Time;durP1;ratioP1;P1;durP2;ratioP2;P2;SDS_P1;SDS_P2;PMS_P1;PMS_P2;Temp;Humidity;BMP_temperature;BMP_pressure;BME280_temperature;BME280_humidity;BME280_pressure;Samples;Min_cycle;Max_cycle;Signal;HPM_P1;HPM_P2
2021/07/12 00:00:16;;;;;;;4.47;3.50;;;24.60;68.60;;;;;;5062827;28;20358;-68
2021/07/12 00:02:43;;;;;;;6.53;3.20;;;24.50;68.60;;;;;;5060277;28;20629;-68
2021/07/12 00:05:11;;;;;;;4.77;3.60;;;24.50;68.80;;;;;;5066704;28;20280;-68
2021/07/12 00:07:38;;;;;;;6.07;3.23;;;24.50;69.20;;;;;;5063034;28;20202;-68
2021/07/12 00:10:09;;;;;;;13.57;3.80;;;24.40;69.20;;;;;;5065199;28;20720;-68
2021/07/12 00:12:37;;;;;;;14.10;4.67;;;24.40;70.00;;;;;;5065878;28;20213;-68
2021/07/12 00:15:05;;;;;;;6.37;3.73;;;24.40;70.20;;;;;;5062953;28;20279;-68
2021/07/12 00:17:33;;;;;;;3.70;3.30;;;24.40;69.90;;;;;;5061345;28;20701;-68
2021/07/12 00:20:00;;;;;;;6.53;3.50;;;24.30;69.70;;;;;;5064053;28;20667;-68
2021/07/12 00:22:27;;;;;;;8.40;3.63;;;24.30;69.70;;;;;;5063542;28;20315;-68
2021/07/12 00:24:54;;;;;;;8.53;4.50;;;24.30;69.80;;;;;;5066169;28;20223;-68
2021/07/12 00:27:21;;;;;;;9.97;4.17;;;24.30;69.80;;;;;;5061869;28;20210;-68
2021/07/12 00:29:47;;;;;;;11.07;4.13;;;24.30;69.70;;;;;;5066200;28;20205;-68
2021/07/12 00:32:14;;;;;;;6.17;3.93;;;24.30;69.50;;;;;;5062555;28;20264;-68
2021/07/12 00:34:41;;;;;;;5.57;3.97;;;24.30;69.40;;;;;;5061335;28;20218;-68
2021/07/12 00:37:08;;;;;;;5.97;3.50;;;24.30;69.30;;;;;;5064251;28;20218;-68
2021/07/12 00:39:35;;;;;;;8.57;3.67;;;24.30;69.40;;;;;;5061646;28;20689;-68
2021/07/12 00:42:02;;;;;;;6.87;4.30;;;24.30;69.40;;;;;;5064524;28;20248;-68
2021/07/12 00:44:29;;;;;;;5.70;4.50;;;24.30;69.40;;;;;;5058618;28;20554;-68
2021/07/12 00:46:56;;;;;;;9.23;4.30;;;24.30;69.30;;;;;;5062381;28;20225;-68
2021/07/12 00:49:24;;;;;;;8.00;4.47;;;24.30;69.30;;;;;;5061244;28;20211;-68
2021/07/12 00:51:52;;;;;;;10.83;4.67;;;24.30;69.40;;;;;;5063801;28;20211;-68
2021/07/12 00:54:19;;;;;;;10.77;4.50;;;24.20;69.30;;;;;;5068406;28;20222;-68
2021/07/12 00:56:46;;;;;;;12.40;4.80;;;24.20;69.30;;;;;;5063331;28;20213;-68
2021/07/12 00:59:13;;;;;;;6.27;4.30;;;24.20;69.30;;;;;;5060816;28;20210;-68
2021/07/12 01:01:40;;;;;;;6.83;4.20;;;24.10;69.50;;;;;;5064930;28;20209;-69
2021/07/12 01:04:07;;;;;;;13.60;4.87;;;24.00;69.60;;;;;;5060994;28;20202;-68
2021/07/12 01:06:34;;;;;;;12.13;5.03;;;24.00;69.80;;;;;;5065052;28;20210;-68
2021/07/12 01:09:01;;;;;;;9.47;4.50;;;24.10;70.00;;;;;;5063343;28;20222;-68
2021/07/12 01:11:47;;;;;;;7.93;4.60;;;24.10;70.10;;;;;;5060744;28;20648;-68
2021/07/12 01:14:38;;;;;;;18.60;4.73;;;24.00;70.10;;;;;;5062006;28;20256;-68
2021/07/12 01:17:28;;;;;;;6.50;4.33;;;24.10;70.10;;;;;;5060134;28;20206;-68
2021/07/12 01:20:23;;;;;;;7.17;4.60;;;24.00;70.00;;;;;;5060959;28;20280;-68
2021/07/12 01:23:02;;;;;;;12.23;5.03;;;24.00;70.10;;;;;;5061401;28;20919;-68
2021/07/12 01:26:04;;;;;;;9.13;5.03;;;23.90;70.30;;;;;;5060124;28;20244;-68
2021/07/12 01:29:04;;;;;;;9.53;6.30;;;23.90;70.80;;;;;;5034172;28;20614;-68
2021/07/12 01:31:53;;;;;;;9.10;5.37;;;23.80;71.10;;;;;;5062669;28;20275;-68
2021/07/12 01:34:41;;;;;;;9.97;5.20;;;23.80;71.30;;;;;;5062094;28;20214;-68
2021/07/12 01:37:40;;;;;;;10.03;5.07;;;23.80;71.50;;;;;;5064122;28;20213;-68
2021/07/12 01:40:18;;;;;;;7.97;4.93;;;23.70;72.10;;;;;;5062831;28;20206;-68
2021/07/12 01:43:02;;;;;;;5.13;4.00;;;23.80;71.70;;;;;;5059655;28;20218;-68
2021/07/12 01:45:40;;;;;;;8.30;4.70;;;23.80;71.80;;;;;;5063675;28;20205;-68
2021/07/12 01:48:17;;;;;;;6.87;4.13;;;23.80;71.80;;;;;;5062080;28;20214;-68
2021/07/12 01:51:04;;;;;;;6.57;4.17;;;23.70;71.90;;;;;;5061768;28;20206;-68
2021/07/12 01:54:08;;;;;;;8.00;4.37;;;23.70;72.00;;;;;;5059660;28;20276;-68
2021/07/12 01:56:42;;;;;;;7.03;5.00;;;23.70;72.30;;;;;;5064255;28;20213;-68
2021/07/12 01:59:22;;;;;;;9.53;5.13;;;23.60;72.30;;;;;;5061934;28;20218;-68
2021/07/12 02:01:51;;;;;;;5.57;4.97;;;23.60;72.50;;;;;;5060654;28;20220;-68
2021/07/12 02:04:24;;;;;;;5.83;4.50;;;23.60;72.40;;;;;;5062589;28;20572;-68
2021/07/12 02:06:53;;;;;;;7.70;4.80;;;23.50;72.30;;;;;;5060326;28;20210;-68
2021/07/12 02:09:21;;;;;;;10.33;5.17;;;23.40;72.40;;;;;;5063908;28;20214;-68
2021/07/12 02:11:49;;;;;;;9.10;5.17;;;23.40;72.50;;;;;;5062520;28;20214;-68
2021/07/12 02:14:21;;;;;;;7.03;6.30;;;23.40;72.50;;;;;;5058857;28;20577;-68
2021/07/12 02:16:50;;;;;;;13.03;6.33;;;23.30;72.60;;;;;;5063244;28;20218;-68
2021/07/12 02:19:20;;;;;;;9.43;6.67;;;23.20;73.00;;;;;;5064571;28;20596;-68
2021/07/12 02:21:49;;;;;;;7.47;6.50;;;23.20;73.30;;;;;;5062204;28;20647;-68
2021/07/12 02:24:19;;;;;;;11.03;6.47;;;23.20;73.50;;;;;;5065911;28;20244;-68
2021/07/12 02:26:46;;;;;;;9.13;7.20;;;23.30;73.70;;;;;;5060759;28;20209;-68
2021/07/12 02:29:15;;;;;;;10.47;7.07;;;23.30;73.70;;;;;;5062373;28;20222;-68
2021/07/12 02:31:44;;;;;;;13.53;8.17;;;23.30;73.80;;;;;;5064977;28;20225;-68
2021/07/12 02:34:12;;;;;;;8.77;7.70;;;23.30;73.80;;;;;;5061332;28;20301;-68
2021/07/12 02:36:40;;;;;;;8.70;7.13;;;23.30;73.90;;;;;;5067672;28;20648;-68
2021/07/12 02:39:08;;;;;;;10.53;7.47;;;23.20;74.00;;;;;;5066309;28;20237;-68
2021/07/12 02:41:36;;;;;;;11.70;7.63;;;23.30;74.10;;;;;;5067259;28;20213;-68
2021/07/12 02:44:07;;;;;;;10.83;8.10;;;23.20;74.10;;;;;;5066637;28;20292;-68
2021/07/12 02:46:34;;;;;;;17.80;8.50;;;23.20;74.30;;;;;;5065710;28;20214;-68
2021/07/12 02:49:02;;;;;;;10.73;7.87;;;23.10;74.30;;;;;;5064460;28;20693;-68
2021/07/12 02:51:36;;;;;;;7.50;6.90;;;23.00;75.20;;;;;;5064964;28;20248;-68
2021/07/12 02:54:06;;;;;;;10.93;8.03;;;23.00;74.70;;;;;;5066591;28;20217;-68
2021/07/12 02:56:33;;;;;;;8.10;7.30;;;23.00;74.70;;;;;;5065818;28;20585;-68
2021/07/12 02:59:00;;;;;;;7.70;7.00;;;23.00;74.80;;;;;;5064897;28;20222;-68
2021/07/12 03:01:27;;;;;;;14.70;7.30;;;23.00;74.90;;;;;;5068105;28;20214;-68
2021/07/12 03:03:55;;;;;;;9.33;7.30;;;23.00;74.80;;;;;;5065165;28;20238;-68
2021/07/12 03:06:29;;;;;;;11.13;8.57;;;23.00;74.80;;;;;;5067126;28;20274;-68
2021/07/12 03:09:13;;;;;;;7.60;6.87;;;23.00;75.00;;;;;;5067299;28;20270;-68
2021/07/12 03:11:54;;;;;;;9.40;7.30;;;23.00;75.10;;;;;;5073670;28;20214;-68
2021/07/12 03:14:38;;;;;;;8.03;7.27;;;23.00;75.00;;;;;;5076268;28;20275;-68
2021/07/12 03:17:08;;;;;;;13.33;8.63;;;23.00;75.10;;;;;;5076484;28;20209;-68
2021/07/12 03:19:40;;;;;;;16.93;8.97;;;22.90;75.10;;;;;;5076277;28;20214;-68
2021/07/12 03:22:10;;;;;;;12.53;8.37;;;22.90;75.20;;;;;;5075869;28;20630;-68
2021/07/12 03:24:40;;;;;;;13.13;8.60;;;22.90;75.30;;;;;;5076404;28;20259;-68
2021/07/12 03:27:10;;;;;;;12.37;8.10;;;22.90;75.30;;;;;;5075977;28;20210;-68
2021/07/12 03:29:39;;;;;;;14.80;9.63;;;22.90;75.20;;;;;;5076166;28;20194;-68
2021/07/12 03:32:08;;;;;;;12.10;10.17;;;22.90;75.20;;;;;;5076065;28;20205;-68
2021/07/12 03:34:36;;;;;;;10.60;9.47;;;22.90;75.20;;;;;;5076096;28;20306;-68
2021/07/12 03:37:04;;;;;;;9.97;9.03;;;22.80;75.10;;;;;;5075906;28;20213;-68
2021/07/12 03:39:32;;;;;;;12.10;9.73;;;22.80;75.20;;;;;;5076112;28;20213;-68
2021/07/12 03:41:59;;;;;;;12.97;9.60;;;22.80;75.40;;;;;;5075743;28;20818;-68
2021/07/12 03:44:26;;;;;;;11.70;10.63;;;22.80;75.40;;;;;;5075939;28;20272;-68
2021/07/12 03:46:53;;;;;;;17.27;11.40;;;22.80;75.40;;;;;;5075843;28;20206;-68
2021/07/12 03:49:21;;;;;;;15.03;12.47;;;22.80;75.40;;;;;;5076232;28;20224;-68
2021/07/12 03:51:53;;;;;;;13.77;12.27;;;22.70;75.60;;;;;;5077487;28;20209;-68
2021/07/12 03:54:21;;;;;;;15.97;12.10;;;22.60;75.60;;;;;;5077362;28;20210;-68
2021/07/12 03:56:48;;;;;;;13.73;12.27;;;22.60;75.70;;;;;;5076457;28;20210;-68
2021/07/12 03:59:15;;;;;;;14.97;10.97;;;22.60;75.70;;;;;;5075985;28;20232;-68
2021/07/12 04:01:43;;;;;;;13.07;10.97;;;22.60;75.70;;;;;;5077586;28;20625;-68
2021/07/12 04:04:09;;;;;;;16.70;11.93;;;22.60;75.70;;;;;;5076441;28;20237;-68
2021/07/12 04:06:37;;;;;;;14.40;11.50;;;22.60;75.70;;;;;;5078232;28;20264;-68
2021/07/12 04:09:04;;;;;;;12.07;10.97;;;22.60;75.70;;;;;;5076978;28;20216;-68
2021/07/12 04:11:33;;;;;;;13.00;11.70;;;22.70;75.70;;;;;;5077733;28;20202;-68
2021/07/12 04:14:01;;;;;;;12.37;11.17;;;22.70;75.70;;;;;;5075732;28;20216;-68
2021/07/12 04:16:28;;;;;;;12.13;10.97;;;22.70;75.70;;;;;;5073547;28;20663;-68
2021/07/12 04:18:56;;;;;;;13.80;10.47;;;22.80;75.70;;;;;;5076904;28;20292;-68
2021/07/12 04:21:23;;;;;;;12.50;10.43;;;22.80;75.70;;;;;;5078272;28;20296;-68
2021/07/12 04:23:51;;;;;;;13.73;11.67;;;22.90;75.60;;;;;;5076808;28;20675;-68
2021/07/12 04:26:18;;;;;;;13.43;11.07;;;22.90;75.30;;;;;;5078688;28;20218;-68
2021/07/12 04:28:45;;;;;;;11.60;10.47;;;23.00;75.30;;;;;;5077585;28;20210;-68
2021/07/12 04:31:13;;;;;;;13.30;10.47;;;23.10;75.30;;;;;;5076478;28;20205;-68
2021/07/12 04:33:40;;;;;;;14.10;10.90;;;23.20;75.20;;;;;;5076432;28;20217;-68
2021/07/12 04:36:07;;;;;;;16.13;10.77;;;23.30;74.80;;;;;;5075115;28;20680;-68
2021/07/12 04:38:35;;;;;;;14.33;10.27;;;23.40;74.60;;;;;;5074882;28;20228;-68
2021/07/12 04:41:02;;;;;;;12.17;11.07;;;23.50;74.30;;;;;;5074780;28;20214;-68
2021/07/12 04:43:29;;;;;;;21.87;11.87;;;23.50;74.20;;;;;;5075156;28;20233;-68
2021/07/12 04:45:56;;;;;;;12.67;11.07;;;23.60;74.00;;;;;;5074630;28;20627;-68
2021/07/12 04:48:24;;;;;;;14.33;11.70;;;23.70;74.00;;;;;;5075240;28;20206;-68
2021/07/12 04:50:51;;;;;;;13.93;10.53;;;23.80;73.80;;;;;;5075221;28;20267;-68
2021/07/12 04:53:18;;;;;;;14.37;11.57;;;23.80;73.50;;;;;;5075292;28;20221;-67
2021/07/12 04:55:44;;;;;;;14.03;11.90;;;24.00;73.30;;;;;;5075133;28;20217;-68
2021/07/12 04:58:11;;;;;;;13.57;12.17;;;24.00;73.00;;;;;;5073637;28;20214;-68
2021/07/12 05:00:38;;;;;;;14.03;12.43;;;24.20;72.70;;;;;;5074013;28;20600;-68
2021/07/12 05:03:07;;;;;;;16.77;14.67;;;24.30;72.30;;;;;;5074626;28;20576;-67
2021/07/12 05:05:34;;;;;;;16.83;14.50;;;24.40;72.10;;;;;;5074375;28;20217;-67
2021/07/12 05:08:01;;;;;;;15.77;14.23;;;24.50;72.50;;;;;;5074863;28;20282;-67
2021/07/12 05:10:28;;;;;;;14.90;13.50;;;24.50;71.70;;;;;;5074335;28;20662;-67
2021/07/12 05:12:55;;;;;;;16.13;14.53;;;24.60;72.00;;;;;;5074342;28;20275;-67
2021/07/12 05:15:22;;;;;;;16.63;14.33;;;24.60;71.90;;;;;;5074587;28;20247;-67
2021/07/12 05:17:49;;;;;;;16.03;14.53;;;24.80;71.70;;;;;;5074134;28;20241;-67
2021/07/12 05:20:16;;;;;;;17.10;15.40;;;24.90;71.60;;;;;;5074392;28;20279;-67
2021/07/12 05:22:43;;;;;;;16.97;15.43;;;25.00;71.40;;;;;;5074009;28;20206;-67
2021/07/12 05:25:10;;;;;;;17.33;15.57;;;25.00;70.80;;;;;;5073951;28;20214;-67
2021/07/12 05:27:37;;;;;;;17.93;16.10;;;25.10;70.90;;;;;;5073768;28;20206;-67
2021/07/12 05:30:06;;;;;;;21.63;17.23;;;25.10;70.60;;;;;;5073808;28;20251;-68
2021/07/12 05:32:34;;;;;;;16.33;14.73;;;25.20;70.30;;;;;;5073861;28;20206;-67
2021/07/12 05:35:01;;;;;;;17.47;15.87;;;25.20;70.00;;;;;;5073764;28;20223;-67
2021/07/12 05:37:28;;;;;;;17.70;15.83;;;25.20;70.10;;;;;;5074140;28;20206;-67
2021/07/12 05:39:55;;;;;;;17.43;15.13;;;25.20;70.20;;;;;;5073752;28;20205;-68
2021/07/12 05:42:23;;;;;;;15.63;14.37;;;25.30;70.20;;;;;;5073585;28;20221;-67
2021/07/12 05:44:50;;;;;;;16.97;14.63;;;25.50;69.90;;;;;;5073547;28;20705;-67
2021/07/12 05:47:17;;;;;;;15.93;14.43;;;25.60;69.70;;;;;;5073422;28;20216;-67
2021/07/12 05:49:44;;;;;;;15.23;13.83;;;25.70;69.70;;;;;;5073623;28;20296;-67
2021/07/12 05:52:11;;;;;;;15.23;13.77;;;25.80;69.30;;;;;;5074083;28;20213;-67
2021/07/12 05:54:38;;;;;;;17.13;15.40;;;25.90;69.10;;;;;;5073384;28;20217;-67
2021/07/12 05:57:06;;;;;;;18.17;15.83;;;26.10;68.80;;;;;;5073577;28;20577;-67
2021/07/12 05:59:33;;;;;;;18.00;16.30;;;26.40;68.50;;;;;;5073336;28;20217;-67
2021/07/12 06:02:00;;;;;;;20.77;18.50;;;26.60;67.90;;;;;;5067409;28;20276;-67
2021/07/12 06:04:27;;;;;;;21.67;17.77;;;26.80;67.20;;;;;;5064245;28;20267;-67
2021/07/12 06:06:54;;;;;;;20.80;15.70;;;27.00;66.50;;;;;;5063445;28;20214;-68
2021/07/12 06:09:21;;;;;;;16.83;15.43;;;27.10;65.80;;;;;;5062033;28;20292;-68
2021/07/12 06:11:48;;;;;;;18.90;14.37;;;27.40;65.50;;;;;;5066092;28;20206;-68
2021/07/12 06:14:15;;;;;;;17.43;15.70;;;27.40;64.50;;;;;;5062143;28;20214;-68
2021/07/12 06:16:42;;;;;;;17.13;15.27;;;27.50;64.00;;;;;;5064019;28;20225;-68
2021/07/12 06:19:13;;;;;;;16.57;14.87;;;27.50;64.10;;;;;;5064766;28;20257;-68
2021/07/12 06:21:40;;;;;;;16.20;13.77;;;27.60;64.00;;;;;;5062200;28;20210;-68
2021/07/12 06:24:07;;;;;;;15.67;14.13;;;27.70;63.60;;;;;;5062359;28;20295;-68
2021/07/12 06:26:34;;;;;;;16.57;14.73;;;27.80;63.50;;;;;;5061932;28;20637;-68
2021/07/12 06:29:01;;;;;;;15.30;13.70;;;28.00;63.20;;;;;;5062881;28;20229;-68
2021/07/12 06:31:28;;;;;;;18.00;16.30;;;28.20;63.00;;;;;;5064443;28;20214;-68
2021/07/12 06:33:55;;;;;;;15.10;13.70;;;28.40;62.20;;;;;;5064046;28;20271;-68
2021/07/12 06:36:22;;;;;;;15.67;13.90;;;28.50;61.80;;;;;;5064225;28;20213;-68
2021/07/12 06:38:50;;;;;;;16.37;14.83;;;28.70;61.50;;;;;;5062009;28;20529;-68
2021/07/12 06:41:16;;;;;;;16.60;13.23;;;28.90;60.90;;;;;;5061977;28;20581;-68
2021/07/12 06:43:43;;;;;;;16.17;14.20;;;29.00;60.70;;;;;;5063800;28;20248;-68
2021/07/12 06:46:10;;;;;;;15.40;13.43;;;29.20;60.10;;;;;;5063178;28;20213;-68
2021/07/12 06:48:38;;;;;;;14.57;13.17;;;29.40;59.70;;;;;;5061895;28;20216;-68
2021/07/12 06:51:05;;;;;;;13.67;12.27;;;29.60;59.30;;;;;;5063194;28;20242;-68
2021/07/12 06:53:34;;;;;;;14.33;12.93;;;29.80;59.00;;;;;;5063860;28;20213;-68
2021/07/12 06:56:03;;;;;;;14.40;12.60;;;30.00;59.10;;;;;;5060468;28;20218;-68
2021/07/12 06:58:31;;;;;;;12.57;11.37;;;30.20;57.80;;;;;;5064219;28;20210;-68
2021/07/12 07:00:58;;;;;;;13.03;11.77;;;30.50;57.40;;;;;;5062176;28;20529;-68
2021/07/12 07:03:25;;;;;;;12.30;11.10;;;30.60;56.60;;;;;;5061556;28;20230;-68
2021/07/12 07:05:52;;;;;;;18.70;10.77;;;30.80;56.20;;;;;;5061374;28;20221;-68
2021/07/12 07:08:19;;;;;;;13.37;11.57;;;30.90;55.90;;;;;;5062111;28;20211;-68
2021/07/12 07:10:46;;;;;;;16.17;10.90;;;30.90;55.00;;;;;;5063740;28;20632;-68
2021/07/12 07:13:13;;;;;;;14.70;12.60;;;30.90;54.80;;;;;;5065273;28;20214;-66
2021/07/12 07:15:58;;;;;;;12.53;11.30;;;30.90;54.40;;;;;;5062551;28;20220;-67
2021/07/12 07:18:25;;;;;;;18.43;11.50;;;30.70;54.80;;;;;;5061016;28;20321;-67
2021/07/12 07:20:52;;;;;;;13.20;12.00;;;30.60;55.00;;;;;;5063109;28;20209;-67
2021/07/12 07:23:19;;;;;;;19.67;12.70;;;30.50;55.50;;;;;;5067345;28;20686;-67
2021/07/12 07:25:46;;;;;;;13.07;11.97;;;30.40;54.70;;;;;;5065295;28;20279;-66
2021/07/12 07:28:13;;;;;;;17.50;12.53;;;30.30;55.20;;;;;;5065491;28;20863;-66
2021/07/12 07:30:40;;;;;;;15.87;14.17;;;30.30;55.30;;;;;;5067512;28;20282;-66
2021/07/12 07:33:07;;;;;;;13.07;11.67;;;30.30;55.20;;;;;;5063647;28;20210;-67
2021/07/12 07:35:34;;;;;;;13.60;12.33;;;30.20;56.00;;;;;;5067322;28;20289;-67
2021/07/12 07:38:02;;;;;;;16.47;12.40;;;30.20;56.40;;;;;;5065316;28;20214;-67
2021/07/12 07:40:29;;;;;;;12.77;11.60;;;30.20;56.60;;;;;;5064505;28;20608;-66
2021/07/12 07:42:56;;;;;;;15.20;11.90;;;30.30;56.10;;;;;;5066584;28;20225;-66
2021/07/12 07:45:23;;;;;;;12.73;10.83;;;30.30;56.50;;;;;;5066621;28;20246;-66
2021/07/12 07:47:49;;;;;;;16.97;11.87;;;30.30;56.50;;;;;;5064509;28;20233;-66
2021/07/12 07:50:20;;;;;;;15.37;13.37;;;30.50;56.10;;;;;;5065249;28;20215;-66
2021/07/12 07:52:47;;;;;;;14.43;11.80;;;30.70;55.60;;;;;;5066784;28;20308;-67
2021/07/12 07:55:14;;;;;;;11.57;10.53;;;30.90;55.40;;;;;;5062896;28;20623;-67
2021/07/12 07:57:42;;;;;;;23.83;12.90;;;31.20;54.90;;;;;;5073700;28;20218;-67
2021/07/12 08:00:16;;;;;;;13.73;10.67;;;31.50;54.10;;;;;;5065484;28;20546;-67
2021/07/12 08:02:43;;;;;;;14.47;9.80;;;31.80;53.70;;;;;;5063974;28;20222;-67
2021/07/12 08:05:11;;;;;;;12.13;10.80;;;32.10;52.70;;;;;;5065099;28;20257;-67
2021/07/12 08:07:38;;;;;;;10.87;9.77;;;32.20;51.40;;;;;;5066578;28;20581;-67
2021/07/12 08:10:12;;;;;;;11.53;10.17;;;32.10;51.60;;;;;;5064221;28;20234;-67
2021/07/12 08:12:40;;;;;;;13.57;11.43;;;32.10;51.90;;;;;;5066835;28;20579;-67
2021/07/12 08:15:12;;;;;;;14.77;10.30;;;32.10;51.50;;;;;;5064695;28;20222;-66
2021/07/12 08:17:40;;;;;;;10.93;9.80;;;32.30;51.60;;;;;;5063698;28;20253;-67
2021/07/12 08:20:11;;;;;;;10.80;8.90;;;32.50;51.30;;;;;;5064568;28;20223;-67
2021/07/12 08:22:48;;;;;;;11.40;8.90;;;32.70;50.30;;;;;;5063444;28;20229;-67
2021/07/12 08:25:15;;;;;;;11.40;8.77;;;32.70;49.50;;;;;;5062528;28;20273;-67
2021/07/12 08:27:42;;;;;;;10.23;8.47;;;32.60;49.80;;;;;;5065425;28;20220;-67
2021/07/12 08:30:11;;;;;;;8.80;7.70;;;32.70;50.30;;;;;;5066623;28;20586;-67
2021/07/12 08:32:38;;;;;;;10.07;7.57;;;32.90;49.80;;;;;;5064021;28;20279;-67
2021/07/12 08:35:06;;;;;;;12.27;8.20;;;33.10;49.10;;;;;;5065155;28;20906;-69
2021/07/12 08:37:33;;;;;;;9.53;7.77;;;33.30;49.20;;;;;;5063992;28;20271;-67
2021/07/12 08:40:03;;;;;;;10.23;7.53;;;33.50;49.40;;;;;;5063749;28;20530;-66
2021/07/12 08:42:30;;;;;;;10.40;7.70;;;33.70;48.80;;;;;;5063663;28;20222;-66
2021/07/12 08:44:57;;;;;;;9.33;8.43;;;33.80;48.50;;;;;;5063851;28;20660;-66
2021/07/12 08:47:24;;;;;;;8.90;8.00;;;33.70;48.50;;;;;;5065833;28;20214;-66
2021/07/12 08:49:51;;;;;;;8.20;6.60;;;33.50;48.80;;;;;;5064471;28;20621;-66
2021/07/12 08:52:18;;;;;;;7.97;7.17;;;33.20;49.00;;;;;;5066414;28;20271;-66
2021/07/12 08:54:45;;;;;;;10.20;6.80;;;33.00;49.10;;;;;;5064474;28;20350;-66
2021/07/12 08:57:12;;;;;;;10.50;7.57;;;32.80;49.90;;;;;;5061836;28;20295;-66
2021/07/12 08:59:41;;;;;;;12.10;6.47;;;32.70;49.80;;;;;;5063459;28;20221;-66
2021/07/12 09:02:09;;;;;;;7.53;6.83;;;32.70;50.30;;;;;;5044956;28;20554;-67
2021/07/12 09:04:38;;;;;;;9.40;7.13;;;32.90;49.80;;;;;;5064691;28;20244;-67
2021/07/12 09:07:11;;;;;;;11.67;7.37;;;33.00;49.90;;;;;;5064112;28;20555;-67
2021/07/12 09:09:39;;;;;;;9.43;6.27;;;33.30;49.10;;;;;;5063860;28;20209;-67
2021/07/12 09:12:17;;;;;;;9.07;6.90;;;33.50;48.70;;;;;;5061828;28;20267;-67
2021/07/12 09:15:11;;;;;;;9.30;7.17;;;33.80;47.80;;;;;;5063900;28;20536;-67
2021/07/12 09:17:41;;;;;;;11.60;9.43;;;33.90;47.90;;;;;;5064295;28;20746;-66
2021/07/12 09:20:11;;;;;;;11.87;8.77;;;33.90;47.00;;;;;;5061783;28;20352;-67
2021/07/12 09:22:40;;;;;;;9.70;7.17;;;33.90;47.60;;;;;;5061963;28;20225;-66
2021/07/12 09:25:10;;;;;;;10.93;7.10;;;34.00;47.90;;;;;;5062391;28;20230;-66
2021/07/12 09:27:40;;;;;;;11.10;7.53;;;34.20;48.30;;;;;;5061763;28;20215;-66
2021/07/12 09:30:13;;;;;;;10.23;8.23;;;34.50;47.50;;;;;;5063435;28;20245;-66
2021/07/12 09:32:43;;;;;;;11.83;8.23;;;34.70;46.40;;;;;;5060749;28;20220;-67
2021/07/12 09:35:13;;;;;;;9.17;7.17;;;34.70;46.50;;;;;;5060161;28;20276;-67
2021/07/12 09:37:42;;;;;;;8.73;6.37;;;34.60;46.50;;;;;;5063157;28;20296;-68
2021/07/12 09:40:16;;;;;;;7.10;6.47;;;34.70;46.80;;;;;;5063949;28;20229;-67
2021/07/12 09:42:47;;;;;;;8.47;6.53;;;34.80;44.80;;;;;;5060042;28;20213;-67
2021/07/12 09:45:17;;;;;;;8.10;6.33;;;34.60;45.30;;;;;;5061342;28;20257;-67
2021/07/12 09:47:46;;;;;;;17.83;5.53;;;34.30;45.00;;;;;;5060993;28;20332;-67
2021/07/12 09:50:23;;;;;;;10.50;5.63;;;34.30;45.80;;;;;;5061828;28;20206;-66
2021/07/12 09:52:58;;;;;;;6.17;5.13;;;34.60;45.40;;;;;;5063593;28;20211;-66
2021/07/12 09:55:26;;;;;;;8.80;5.70;;;34.80;45.30;;;;;;5060133;28;20572;-66
2021/07/12 09:58:16;;;;;;;7.10;5.27;;;35.10;44.40;;;;;;5061765;28;20215;-66
2021/07/12 10:00:48;;;;;;;5.90;4.40;;;35.20;45.00;;;;;;5062542;28;20214;-66
2021/07/12 10:03:20;;;;;;;11.13;5.13;;;35.30;45.20;;;;;;5060894;28;20211;-66
2021/07/12 10:05:49;;;;;;;8.40;4.80;;;35.50;44.60;;;;;;5061438;28;20276;-66
2021/07/12 10:08:16;;;;;;;8.07;5.50;;;35.70;44.70;;;;;;5060097;28;20274;-66
2021/07/12 10:10:44;;;;;;;8.87;5.00;;;35.90;43.00;;;;;;5063359;28;20304;-66
2021/07/12 10:13:12;;;;;;;13.80;4.60;;;35.60;42.80;;;;;;5063537;28;20236;-66
2021/07/12 10:15:39;;;;;;;6.23;3.80;;;35.30;43.70;;;;;;5062708;28;20217;-66
2021/07/12 10:18:07;;;;;;;5.07;3.40;;;35.40;43.20;;;;;;5060942;28;20246;-66
2021/07/12 10:20:35;;;;;;;5.43;3.40;;;35.60;42.50;;;;;;5062365;28;20317;-66
2021/07/12 10:23:05;;;;;;;5.93;3.33;;;35.80;42.40;;;;;;5059393;28;20241;-66
2021/07/12 10:25:33;;;;;;;9.40;3.53;;;36.00;42.50;;;;;;5064510;28;20241;-66
2021/07/12 10:28:03;;;;;;;7.23;3.73;;;36.20;42.30;;;;;;5063730;28;20216;-66
2021/07/12 10:30:33;;;;;;;3.87;3.33;;;36.30;40.90;;;;;;5063260;28;20268;-66
2021/07/12 10:33:05;;;;;;;5.57;3.80;;;36.30;41.10;;;;;;5060990;28;20529;-66
2021/07/12 10:35:41;;;;;;;5.03;3.50;;;36.40;40.80;;;;;;5063436;28;20687;-66
2021/07/12 10:38:10;;;;;;;3.57;3.27;;;36.50;41.10;;;;;;5061857;28;20652;-66
2021/07/12 10:40:48;;;;;;;6.00;4.30;;;36.70;41.10;;;;;;5061209;28;20225;-66
2021/07/12 10:43:44;;;;;;;11.17;4.47;;;36.80;38.50;;;;;;5061140;28;20531;-66
2021/07/12 10:46:31;;;;;;;8.00;3.80;;;36.40;39.70;;;;;;5059080;28;20246;-66
2021/07/12 10:49:03;;;;;;;4.30;2.97;;;36.20;40.10;;;;;;5062521;28;20210;-66
2021/07/12 10:51:40;;;;;;;6.57;3.73;;;36.30;40.10;;;;;;5058205;28;20215;-66
2021/07/12 10:54:10;;;;;;;7.63;3.47;;;36.40;39.70;;;;;;5062391;28;20206;-66
2021/07/12 10:56:57;;;;;;;4.10;3.70;;;36.50;38.70;;;;;;5061384;28;20205;-66
2021/07/12 10:59:33;;;;;;;4.40;3.40;;;36.60;39.50;;;;;;5066629;28;20252;-66
2021/07/12 11:02:03;;;;;;;10.97;4.17;;;36.70;39.40;;;;;;5063174;28;20515;-66
2021/07/12 11:04:31;;;;;;;9.23;3.53;;;36.80;39.00;;;;;;5067265;28;20243;-66
2021/07/12 11:06:59;;;;;;;7.00;4.00;;;36.80;39.60;;;;;;5064304;28;20202;-66
2021/07/12 11:09:45;;;;;;;7.63;3.30;;;36.80;38.00;;;;;;5064560;28;20241;-66
2021/07/12 11:12:38;;;;;;;4.90;3.40;;;36.90;38.10;;;;;;5067902;28;20205;-66
2021/07/12 11:15:05;;;;;;;3.63;2.43;;;36.80;38.20;;;;;;5065353;28;20225;-66
2021/07/12 11:17:49;;;;;;;4.53;3.30;;;36.80;38.70;;;;;;5063646;28;20240;-66
2021/07/12 11:20:16;;;;;;;3.63;2.80;;;36.90;38.10;;;;;;5065156;28;20228;-66
2021/07/12 11:22:53;;;;;;;4.87;2.90;;;37.00;38.70;;;;;;5067389;28;20639;-66
2021/07/12 11:25:40;;;;;;;6.67;3.43;;;37.20;38.40;;;;;;5066895;28;20282;-66
2021/07/12 11:28:17;;;;;;;5.93;3.40;;;37.30;38.40;;;;;;5067079;28;20209;-66
2021/07/12 11:30:44;;;;;;;3.40;3.10;;;37.40;37.60;;;;;;5068247;28;20263;-66
2021/07/12 11:33:31;;;;;;;5.60;3.00;;;37.50;36.80;;;;;;5065795;28;20279;-67
2021/07/12 11:35:58;;;;;;;4.40;2.80;;;37.40;36.80;;;;;;5061575;28;20214;-67
2021/07/12 11:38:25;;;;;;;4.87;3.23;;;37.30;37.10;;;;;;5064643;28;20222;-66
2021/07/12 11:41:03;;;;;;;7.73;3.23;;;37.30;36.70;;;;;;5066097;28;20228;-66
2021/07/12 11:43:30;;;;;;;4.97;3.33;;;37.20;37.00;;;;;;5064334;28;20276;-66
2021/07/12 11:45:59;;;;;;;5.10;2.57;;;37.20;37.60;;;;;;5064171;28;20222;-66
2021/07/12 11:48:26;;;;;;;6.57;2.77;;;37.40;37.40;;;;;;5063453;28;20214;-66
2021/07/12 11:50:53;;;;;;;5.17;2.87;;;37.50;37.30;;;;;;5065666;28;20209;-66
2021/07/12 11:53:20;;;;;;;3.60;3.00;;;37.60;37.30;;;;;;5066667;28;20237;-66
2021/07/12 11:55:47;;;;;;;4.93;2.87;;;37.70;36.60;;;;;;5064906;28;20222;-66
2021/07/12 11:58:14;;;;;;;3.33;3.00;;;37.80;36.70;;;;;;5064385;28;20225;-66
2021/07/12 12:00:41;;;;;;;4.50;2.77;;;37.80;36.20;;;;;;5066340;28;20217;-66
2021/07/12 12:03:11;;;;;;;4.37;3.03;;;37.70;36.00;;;;;;5066524;28;20218;-66
2021/07/12 12:05:44;;;;;;;2.93;2.50;;;37.80;36.00;;;;;;5056936;28;20296;-66
2021/07/12 12:08:21;;;;;;;3.80;2.70;;;37.80;35.90;;;;;;5067722;28;20221;-66
2021/07/12 12:10:50;;;;;;;3.23;3.03;;;37.80;36.10;;;;;;5068231;28;20278;-66
2021/07/12 12:13:21;;;;;;;5.40;3.00;;;37.80;35.70;;;;;;5066770;28;20259;-67
2021/07/12 12:15:51;;;;;;;4.77;2.90;;;37.80;36.30;;;;;;5066206;28;20217;-66
2021/07/12 12:18:21;;;;;;;3.97;3.07;;;37.70;36.70;;;;;;5064079;28;20306;-66
2021/07/12 12:20:52;;;;;;;4.33;3.00;;;37.50;35.80;;;;;;5067524;28;20221;-66
2021/07/12 12:23:27;;;;;;;3.40;3.10;;;37.10;36.70;;;;;;5064738;28;20272;-66
2021/07/12 12:25:56;;;;;;;7.97;3.27;;;37.10;36.60;;;;;;5063567;28;20229;-66
2021/07/12 12:28:25;;;;;;;3.13;2.83;;;36.90;36.60;;;;;;5064287;28;20221;-66
2021/07/12 12:30:53;;;;;;;2.93;2.70;;;36.90;36.50;;;;;;5067905;28;20213;-66
2021/07/12 12:33:29;;;;;;;3.93;2.73;;;36.80;37.00;;;;;;5068485;28;20292;-66
2021/07/12 12:35:59;;;;;;;8.03;3.20;;;36.70;36.10;;;;;;5062399;28;20209;-66
2021/07/12 12:38:26;;;;;;;4.63;3.40;;;36.70;35.60;;;;;;5065972;28;20299;-66
2021/07/12 12:41:02;;;;;;;5.20;3.10;;;36.60;35.70;;;;;;5064026;28;20224;-66
2021/07/12 12:43:30;;;;;;;2.73;2.53;;;36.50;36.00;;;;;;5063077;28;20214;-66
2021/07/12 12:46:00;;;;;;;3.10;2.70;;;36.40;37.30;;;;;;5063314;28;20230;-67
2021/07/12 12:48:31;;;;;;;3.63;2.77;;;36.50;36.70;;;;;;5062524;28;20839;-66
2021/07/12 12:50:58;;;;;;;6.60;3.10;;;36.30;37.30;;;;;;5067107;28;20281;-66
2021/07/12 12:53:31;;;;;;;4.07;3.03;;;36.30;36.70;;;;;;5063276;28;20272;-66